sensor_id;sensor_type;location;lat;lon;timestamp;P1;durP1;ratioP1;P2;durP2;ratioP2
19651;SDS011;9974;52.146;14.668;2022-11-15T00:00:19;81.87;;;35.57;;
19651;SDS011;9974;52.146;14.668;2022-11-15T00:02:45;97.40;;;36.57;;
19651;SDS011;9974;52.146;14.668;2022-11-15T00:05:11;116.57;;;38.03;;
19651;SDS011;9974;52.146;14.668;2022-11-15T00:07:37;97.97;;;39.97;;
19651;SDS011;9974;52.146;14.668;2022-11-15T00:10:03;107.87;;;41.83;;
19651;SDS011;9974;52.146;14.668;2022-11-15T00:12:28;159.07;;;45.17;;
19651;SDS011;9974;52.146;14.668;2022-11-15T00:14:54;185.27;;;45.77;;
19651;SDS011;9974;52.146;14.668;2022-11-15T00:17:20;143.53;;;43.57;;
19651;SDS011;9974;52.146;14.668;2022-11-15T00:19:47;141.27;;;46.30;;
19651;SDS011;9974;52.146;14.668;2022-11-15T00:22:14;140.90;;;43.10;;
19651;SDS011;9974;52.146;14.668;2022-11-15T00:24:39;104.47;;;42.80;;
19651;SDS011;9974;52.146;14.668;2022-11-15T00:27:05;102.50;;;38.70;;
19651;SDS011;9974;52.146;14.668;2022-11-15T00:29:31;106.33;;;39.60;;
19651;SDS011;9974;52.146;14.668;2022-11-15T00:31:58;114.20;;;38.13;;
19651;SDS011;9974;52.146;14.668;2022-11-15T00:34:24;95.97;;;37.63;;
19651;SDS011;9974;52.146;14.668;2022-11-15T00:36:50;92.77;;;37.07;;
19651;SDS011;9974;52.146;14.668;2022-11-15T00:39:16;114.57;;;38.60;;
19651;SDS011;9974;52.146;14.668;2022-11-15T00:41:42;109.77;;;36.50;;
19651;SDS011;9974;52.146;14.668;2022-11-15T00:44:08;152.03;;;34.53;;
19651;SDS011;9974;52.146;14.668;2022-11-15T00:46:34;124.50;;;37.33;;
19651;SDS011;9974;52.146;14.668;2022-11-15T00:48:59;123.93;;;36.77;;
19651;SDS011;9974;52.146;14.668;2022-11-15T00:51:25;113.10;;;35.47;;
19651;SDS011;9974;52.146;14.668;2022-11-15T00:53:51;85.87;;;35.33;;
19651;SDS011;9974;52.146;14.668;2022-11-15T00:56:17;94.50;;;36.00;;
19651;SDS011;9974;52.146;14.668;2022-11-15T00:58:43;88.27;;;35.50;;
19651;SDS011;9974;52.146;14.668;2022-11-15T01:01:10;104.87;;;37.03;;
19651;SDS011;9974;52.146;14.668;2022-11-15T01:03:38;100.00;;;35.00;;
19651;SDS011;9974;52.146;14.668;2022-11-15T01:06:05;99.60;;;36.27;;
19651;SDS011;9974;52.146;14.668;2022-11-15T01:08:34;122.27;;;35.43;;
19651;SDS011;9974;52.146;14.668;2022-11-15T01:11:01;104.07;;;33.97;;
19651;SDS011;9974;52.146;14.668;2022-11-15T01:13:30;96.40;;;36.47;;
19651;SDS011;9974;52.146;14.668;2022-11-15T01:15:57;108.40;;;34.53;;
19651;SDS011;9974;52.146;14.668;2022-11-15T01:18:23;129.93;;;38.07;;
19651;SDS011;9974;52.146;14.668;2022-11-15T01:20:49;113.63;;;37.83;;
19651;SDS011;9974;52.146;14.668;2022-11-15T01:23:15;100.67;;;36.97;;
19651;SDS011;9974;52.146;14.668;2022-11-15T01:25:41;108.30;;;32.70;;
19651;SDS011;9974;52.146;14.668;2022-11-15T01:28:07;94.50;;;35.10;;
19651;SDS011;9974;52.146;14.668;2022-11-15T01:30:33;99.10;;;35.53;;
19651;SDS011;9974;52.146;14.668;2022-11-15T01:33:00;97.43;;;35.73;;
19651;SDS011;9974;52.146;14.668;2022-11-15T01:35:26;112.00;;;32.67;;
19651;SDS011;9974;52.146;14.668;2022-11-15T01:37:52;90.33;;;33.17;;
19651;SDS011;9974;52.146;14.668;2022-11-15T01:40:18;89.10;;;31.67;;
19651;SDS011;9974;52.146;14.668;2022-11-15T01:42:44;97.37;;;32.80;;
19651;SDS011;9974;52.146;14.668;2022-11-15T01:45:14;94.33;;;33.40;;
19651;SDS011;9974;52.146;14.668;2022-11-15T01:47:50;98.30;;;34.13;;
19651;SDS011;9974;52.146;14.668;2022-11-15T01:50:19;104.40;;;32.60;;
19651;SDS011;9974;52.146;14.668;2022-11-15T01:52:48;108.57;;;34.33;;
19651;SDS011;9974;52.146;14.668;2022-11-15T01:55:16;132.90;;;33.23;;
19651;SDS011;9974;52.146;14.668;2022-11-15T01:57:48;110.10;;;32.63;;
19651;SDS011;9974;52.146;14.668;2022-11-15T02:00:16;103.83;;;33.73;;
19651;SDS011;9974;52.146;14.668;2022-11-15T02:02:42;131.90;;;34.60;;
19651;SDS011;9974;52.146;14.668;2022-11-15T02:05:08;94.80;;;32.73;;
19651;SDS011;9974;52.146;14.668;2022-11-15T02:07:34;114.03;;;34.83;;
19651;SDS011;9974;52.146;14.668;2022-11-15T02:10:02;101.57;;;33.47;;
19651;SDS011;9974;52.146;14.668;2022-11-15T02:12:37;105.23;;;34.07;;
19651;SDS011;9974;52.146;14.668;2022-11-15T02:15:04;94.73;;;35.47;;
19651;SDS011;9974;52.146;14.668;2022-11-15T02:17:33;94.27;;;33.33;;
19651;SDS011;9974;52.146;14.668;2022-11-15T02:29:01;74.40;;;32.27;;
19651;SDS011;9974;52.146;14.668;2022-11-15T02:31:46;97.17;;;36.57;;
19651;SDS011;9974;52.146;14.668;2022-11-15T02:39:34;74.97;;;34.43;;
19651;SDS011;9974;52.146;14.668;2022-11-15T02:42:08;66.97;;;33.60;;
19651;SDS011;9974;52.146;14.668;2022-11-15T02:45:11;55.67;;;33.77;;
19651;SDS011;9974;52.146;14.668;2022-11-15T02:47:42;60.77;;;33.13;;
19651;SDS011;9974;52.146;14.668;2022-11-15T02:50:12;73.30;;;37.00;;
19651;SDS011;9974;52.146;14.668;2022-11-15T02:52:43;87.03;;;35.60;;
19651;SDS011;9974;52.146;14.668;2022-11-15T02:58:08;86.73;;;36.13;;
19651;SDS011;9974;52.146;14.668;2022-11-15T03:01:01;75.97;;;36.33;;
19651;SDS011;9974;52.146;14.668;2022-11-15T03:09:07;68.70;;;34.43;;
19651;SDS011;9974;52.146;14.668;2022-11-15T03:11:59;94.83;;;33.83;;
19651;SDS011;9974;52.146;14.668;2022-11-15T03:14:33;66.60;;;34.27;;
19651;SDS011;9974;52.146;14.668;2022-11-15T03:17:25;94.57;;;33.10;;
19651;SDS011;9974;52.146;14.668;2022-11-15T03:20:01;71.60;;;34.30;;
19651;SDS011;9974;52.146;14.668;2022-11-15T03:22:29;64.60;;;34.43;;
19651;SDS011;9974;52.146;14.668;2022-11-15T03:25:00;85.30;;;36.30;;
19651;SDS011;9974;52.146;14.668;2022-11-15T03:27:35;81.87;;;34.90;;
19651;SDS011;9974;52.146;14.668;2022-11-15T03:30:07;73.00;;;34.67;;
19651;SDS011;9974;52.146;14.668;2022-11-15T03:32:34;108.27;;;34.30;;
19651;SDS011;9974;52.146;14.668;2022-11-15T03:37:40;82.80;;;36.43;;
19651;SDS011;9974;52.146;14.668;2022-11-15T03:40:35;131.97;;;36.80;;
19651;SDS011;9974;52.146;14.668;2022-11-15T03:43:09;134.87;;;36.13;;
19651;SDS011;9974;52.146;14.668;2022-11-15T03:45:47;94.07;;;35.47;;
19651;SDS011;9974;52.146;14.668;2022-11-15T03:48:18;92.70;;;37.03;;
19651;SDS011;9974;52.146;14.668;2022-11-15T03:50:48;102.27;;;36.70;;
19651;SDS011;9974;52.146;14.668;2022-11-15T03:53:14;108.70;;;35.70;;
19651;SDS011;9974;52.146;14.668;2022-11-15T03:55:40;88.67;;;34.23;;
19651;SDS011;9974;52.146;14.668;2022-11-15T03:58:06;101.67;;;36.03;;
19651;SDS011;9974;52.146;14.668;2022-11-15T04:00:32;89.57;;;34.83;;
19651;SDS011;9974;52.146;14.668;2022-11-15T04:02:58;108.93;;;35.83;;
19651;SDS011;9974;52.146;14.668;2022-11-15T04:05:24;97.30;;;34.57;;
19651;SDS011;9974;52.146;14.668;2022-11-15T04:07:50;86.47;;;37.20;;
19651;SDS011;9974;52.146;14.668;2022-11-15T04:10:16;105.60;;;37.53;;
19651;SDS011;9974;52.146;14.668;2022-11-15T04:12:43;112.67;;;34.33;;
19651;SDS011;9974;52.146;14.668;2022-11-15T04:15:14;122.97;;;36.00;;
19651;SDS011;9974;52.146;14.668;2022-11-15T04:17:46;94.13;;;35.93;;
19651;SDS011;9974;52.146;14.668;2022-11-15T04:20:26;117.70;;;37.30;;
19651;SDS011;9974;52.146;14.668;2022-11-15T04:23:13;123.57;;;33.60;;
19651;SDS011;9974;52.146;14.668;2022-11-15T04:26:10;104.83;;;37.30;;
19651;SDS011;9974;52.146;14.668;2022-11-15T04:28:40;122.40;;;35.30;;
19651;SDS011;9974;52.146;14.668;2022-11-15T04:31:24;90.33;;;36.40;;
19651;SDS011;9974;52.146;14.668;2022-11-15T04:33:50;88.03;;;32.27;;
19651;SDS011;9974;52.146;14.668;2022-11-15T04:36:16;96.37;;;33.17;;
19651;SDS011;9974;52.146;14.668;2022-11-15T04:39:01;101.97;;;33.57;;
19651;SDS011;9974;52.146;14.668;2022-11-15T04:41:27;85.73;;;33.73;;
19651;SDS011;9974;52.146;14.668;2022-11-15T04:43:53;73.33;;;34.30;;
19651;SDS011;9974;52.146;14.668;2022-11-15T04:46:20;57.27;;;32.93;;
19651;SDS011;9974;52.146;14.668;2022-11-15T04:48:46;74.33;;;32.97;;
19651;SDS011;9974;52.146;14.668;2022-11-15T04:51:11;62.13;;;32.17;;
19651;SDS011;9974;52.146;14.668;2022-11-15T04:53:37;56.27;;;32.77;;
19651;SDS011;9974;52.146;14.668;2022-11-15T04:56:03;56.70;;;32.80;;
19651;SDS011;9974;52.146;14.668;2022-11-15T04:58:29;56.80;;;33.37;;
19651;SDS011;9974;52.146;14.668;2022-11-15T05:00:56;46.83;;;31.17;;
19651;SDS011;9974;52.146;14.668;2022-11-15T05:03:22;53.50;;;30.70;;
19651;SDS011;9974;52.146;14.668;2022-11-15T05:06:06;55.07;;;32.17;;
19651;SDS011;9974;52.146;14.668;2022-11-15T05:08:32;53.43;;;33.30;;
19651;SDS011;9974;52.146;14.668;2022-11-15T05:10:58;52.47;;;32.90;;
19651;SDS011;9974;52.146;14.668;2022-11-15T05:13:24;48.73;;;31.87;;
19651;SDS011;9974;52.146;14.668;2022-11-15T05:15:50;51.37;;;33.47;;
19651;SDS011;9974;52.146;14.668;2022-11-15T05:18:16;46.97;;;31.50;;
19651;SDS011;9974;52.146;14.668;2022-11-15T05:20:42;53.90;;;35.27;;
19651;SDS011;9974;52.146;14.668;2022-11-15T05:23:08;50.70;;;32.07;;
19651;SDS011;9974;52.146;14.668;2022-11-15T05:25:35;55.70;;;32.80;;
19651;SDS011;9974;52.146;14.668;2022-11-15T05:28:02;51.33;;;32.43;;
19651;SDS011;9974;52.146;14.668;2022-11-15T05:30:29;51.57;;;33.10;;
19651;SDS011;9974;52.146;14.668;2022-11-15T05:32:55;53.80;;;35.03;;
19651;SDS011;9974;52.146;14.668;2022-11-15T05:35:28;51.53;;;32.07;;
19651;SDS011;9974;52.146;14.668;2022-11-15T05:37:58;54.93;;;33.97;;
19651;SDS011;9974;52.146;14.668;2022-11-15T05:40:24;58.13;;;35.43;;
19651;SDS011;9974;52.146;14.668;2022-11-15T05:42:50;53.43;;;35.30;;
19651;SDS011;9974;52.146;14.668;2022-11-15T05:45:16;50.47;;;33.27;;
19651;SDS011;9974;52.146;14.668;2022-11-15T05:47:42;53.47;;;35.13;;
19651;SDS011;9974;52.146;14.668;2022-11-15T05:50:13;55.70;;;34.97;;
19651;SDS011;9974;52.146;14.668;2022-11-15T05:52:40;58.60;;;34.90;;
19651;SDS011;9974;52.146;14.668;2022-11-15T05:55:06;54.13;;;34.90;;
19651;SDS011;9974;52.146;14.668;2022-11-15T05:57:33;53.13;;;35.53;;
19651;SDS011;9974;52.146;14.668;2022-11-15T05:59:59;52.67;;;34.77;;
19651;SDS011;9974;52.146;14.668;2022-11-15T06:02:26;51.07;;;33.60;;
19651;SDS011;9974;52.146;14.668;2022-11-15T06:04:52;54.37;;;35.00;;
19651;SDS011;9974;52.146;14.668;2022-11-15T06:07:18;52.43;;;32.73;;
19651;SDS011;9974;52.146;14.668;2022-11-15T06:09:44;50.97;;;32.60;;
19651;SDS011;9974;52.146;14.668;2022-11-15T06:12:10;54.40;;;33.43;;
19651;SDS011;9974;52.146;14.668;2022-11-15T06:14:36;53.23;;;33.90;;
19651;SDS011;9974;52.146;14.668;2022-11-15T06:17:02;57.30;;;35.20;;
19651;SDS011;9974;52.146;14.668;2022-11-15T06:19:28;60.53;;;36.33;;
19651;SDS011;9974;52.146;14.668;2022-11-15T06:21:57;60.33;;;35.43;;
19651;SDS011;9974;52.146;14.668;2022-11-15T06:24:24;53.27;;;35.27;;
19651;SDS011;9974;52.146;14.668;2022-11-15T06:26:50;62.40;;;36.47;;
19651;SDS011;9974;52.146;14.668;2022-11-15T06:29:16;63.43;;;37.27;;
19651;SDS011;9974;52.146;14.668;2022-11-15T06:31:43;59.00;;;34.50;;
19651;SDS011;9974;52.146;14.668;2022-11-15T06:34:09;59.53;;;35.33;;
19651;SDS011;9974;52.146;14.668;2022-11-15T06:36:35;60.57;;;36.43;;
19651;SDS011;9974;52.146;14.668;2022-11-15T06:39:02;63.37;;;38.07;;
19651;SDS011;9974;52.146;14.668;2022-11-15T06:41:29;56.73;;;35.13;;
19651;SDS011;9974;52.146;14.668;2022-11-15T06:43:54;55.73;;;35.83;;
19651;SDS011;9974;52.146;14.668;2022-11-15T06:46:21;62.73;;;38.23;;
19651;SDS011;9974;52.146;14.668;2022-11-15T06:48:46;59.93;;;36.73;;
19651;SDS011;9974;52.146;14.668;2022-11-15T06:51:14;59.67;;;36.27;;
19651;SDS011;9974;52.146;14.668;2022-11-15T06:53:40;58.30;;;36.50;;
19651;SDS011;9974;52.146;14.668;2022-11-15T06:56:06;61.47;;;38.07;;
19651;SDS011;9974;52.146;14.668;2022-11-15T06:58:32;58.63;;;36.00;;
19651;SDS011;9974;52.146;14.668;2022-11-15T07:01:07;62.80;;;36.83;;
19651;SDS011;9974;52.146;14.668;2022-11-15T07:03:35;60.20;;;35.83;;
19651;SDS011;9974;52.146;14.668;2022-11-15T07:06:03;61.03;;;35.47;;
19651;SDS011;9974;52.146;14.668;2022-11-15T07:08:29;58.87;;;32.77;;
19651;SDS011;9974;52.146;14.668;2022-11-15T07:10:58;56.33;;;36.13;;
19651;SDS011;9974;52.146;14.668;2022-11-15T07:13:26;52.17;;;34.27;;
19651;SDS011;9974;52.146;14.668;2022-11-15T07:15:53;53.60;;;34.07;;
19651;SDS011;9974;52.146;14.668;2022-11-15T07:18:19;53.00;;;32.37;;
19651;SDS011;9974;52.146;14.668;2022-11-15T07:20:46;54.90;;;34.30;;
19651;SDS011;9974;52.146;14.668;2022-11-15T07:23:12;52.20;;;34.60;;
19651;SDS011;9974;52.146;14.668;2022-11-15T07:25:38;55.97;;;35.03;;
19651;SDS011;9974;52.146;14.668;2022-11-15T07:28:04;58.53;;;35.60;;
19651;SDS011;9974;52.146;14.668;2022-11-15T07:30:30;52.40;;;35.07;;
19651;SDS011;9974;52.146;14.668;2022-11-15T07:32:59;54.30;;;34.60;;
19651;SDS011;9974;52.146;14.668;2022-11-15T07:35:26;55.37;;;37.43;;
19651;SDS011;9974;52.146;14.668;2022-11-15T07:37:53;56.53;;;36.40;;
19651;SDS011;9974;52.146;14.668;2022-11-15T07:40:21;52.07;;;34.73;;
19651;SDS011;9974;52.146;14.668;2022-11-15T07:42:47;54.33;;;35.07;;
19651;SDS011;9974;52.146;14.668;2022-11-15T07:45:20;54.53;;;35.23;;
19651;SDS011;9974;52.146;14.668;2022-11-15T07:47:48;51.07;;;34.80;;
19651;SDS011;9974;52.146;14.668;2022-11-15T07:50:15;52.27;;;35.23;;
19651;SDS011;9974;52.146;14.668;2022-11-15T07:52:41;54.43;;;34.53;;
19651;SDS011;9974;52.146;14.668;2022-11-15T07:55:08;58.37;;;37.20;;
19651;SDS011;9974;52.146;14.668;2022-11-15T07:57:34;54.90;;;35.00;;
19651;SDS011;9974;52.146;14.668;2022-11-15T08:00:00;55.10;;;35.83;;
19651;SDS011;9974;52.146;14.668;2022-11-15T08:02:26;55.57;;;36.40;;
19651;SDS011;9974;52.146;14.668;2022-11-15T08:04:53;56.73;;;36.87;;
19651;SDS011;9974;52.146;14.668;2022-11-15T08:07:19;54.70;;;34.53;;
19651;SDS011;9974;52.146;14.668;2022-11-15T08:09:45;57.33;;;37.93;;
19651;SDS011;9974;52.146;14.668;2022-11-15T08:12:11;54.53;;;37.33;;
19651;SDS011;9974;52.146;14.668;2022-11-15T08:14:37;57.27;;;35.93;;
19651;SDS011;9974;52.146;14.668;2022-11-15T08:17:03;57.27;;;37.70;;
19651;SDS011;9974;52.146;14.668;2022-11-15T08:19:29;53.13;;;36.73;;
19651;SDS011;9974;52.146;14.668;2022-11-15T08:21:55;55.57;;;37.60;;
19651;SDS011;9974;52.146;14.668;2022-11-15T08:24:21;55.17;;;36.13;;
19651;SDS011;9974;52.146;14.668;2022-11-15T08:26:47;51.80;;;35.20;;
19651;SDS011;9974;52.146;14.668;2022-11-15T08:29:12;48.53;;;33.60;;
19651;SDS011;9974;52.146;14.668;2022-11-15T08:31:38;53.57;;;36.20;;
19651;SDS011;9974;52.146;14.668;2022-11-15T08:34:04;59.77;;;37.63;;
19651;SDS011;9974;52.146;14.668;2022-11-15T08:36:31;55.17;;;37.77;;
19651;SDS011;9974;52.146;14.668;2022-11-15T08:38:57;54.73;;;36.50;;
19651;SDS011;9974;52.146;14.668;2022-11-15T08:41:27;58.30;;;40.87;;
19651;SDS011;9974;52.146;14.668;2022-11-15T08:43:57;51.00;;;34.57;;
19651;SDS011;9974;52.146;14.668;2022-11-15T08:46:23;49.47;;;30.33;;
19651;SDS011;9974;52.146;14.668;2022-11-15T08:48:49;41.58;;;28.80;;
19651;SDS011;9974;52.146;14.668;2022-11-15T08:51:15;42.67;;;27.33;;
19651;SDS011;9974;52.146;14.668;2022-11-15T08:53:41;33.30;;;23.95;;
19651;SDS011;9974;52.146;14.668;2022-11-15T08:56:08;30.80;;;22.73;;
19651;SDS011;9974;52.146;14.668;2022-11-15T08:58:38;31.10;;;24.27;;
19651;SDS011;9974;52.146;14.668;2022-11-15T09:01:04;33.80;;;24.13;;
19651;SDS011;9974;52.146;14.668;2022-11-15T09:03:30;34.78;;;25.30;;
19651;SDS011;9974;52.146;14.668;2022-11-15T09:05:57;35.38;;;23.75;;
19651;SDS011;9974;52.146;14.668;2022-11-15T09:08:24;35.05;;;25.58;;
19651;SDS011;9974;52.146;14.668;2022-11-15T09:10:51;35.95;;;25.70;;
19651;SDS011;9974;52.146;14.668;2022-11-15T09:13:17;37.90;;;25.45;;
19651;SDS011;9974;52.146;14.668;2022-11-15T09:15:42;36.17;;;25.42;;
19651;SDS011;9974;52.146;14.668;2022-11-15T09:18:09;34.45;;;24.98;;
19651;SDS011;9974;52.146;14.668;2022-11-15T09:20:35;33.90;;;25.75;;
19651;SDS011;9974;52.146;14.668;2022-11-15T09:23:00;38.67;;;27.13;;
19651;SDS011;9974;52.146;14.668;2022-11-15T09:25:27;36.40;;;26.73;;
19651;SDS011;9974;52.146;14.668;2022-11-15T09:27:54;40.15;;;25.63;;
19651;SDS011;9974;52.146;14.668;2022-11-15T09:30:20;34.00;;;24.10;;
19651;SDS011;9974;52.146;14.668;2022-11-15T09:32:46;39.33;;;26.35;;
19651;SDS011;9974;52.146;14.668;2022-11-15T09:35:12;36.50;;;26.27;;
19651;SDS011;9974;52.146;14.668;2022-11-15T09:37:38;36.20;;;25.80;;
19651;SDS011;9974;52.146;14.668;2022-11-15T09:40:04;39.33;;;26.27;;
19651;SDS011;9974;52.146;14.668;2022-11-15T09:42:35;41.10;;;30.08;;
19651;SDS011;9974;52.146;14.668;2022-11-15T09:45:34;38.35;;;26.42;;
19651;SDS011;9974;52.146;14.668;2022-11-15T09:51:12;43.70;;;27.83;;
19651;SDS011;9974;52.146;14.668;2022-11-15T09:53:51;40.15;;;27.17;;
19651;SDS011;9974;52.146;14.668;2022-11-15T09:56:27;36.17;;;25.77;;
19651;SDS011;9974;52.146;14.668;2022-11-15T09:58:59;39.22;;;26.17;;
19651;SDS011;9974;52.146;14.668;2022-11-15T10:05:02;33.80;;;24.63;;
19651;SDS011;9974;52.146;14.668;2022-11-15T10:07:46;34.42;;;25.83;;
19651;SDS011;9974;52.146;14.668;2022-11-15T10:13:22;34.13;;;25.70;;
19651;SDS011;9974;52.146;14.668;2022-11-15T10:19:07;38.22;;;24.42;;
19651;SDS011;9974;52.146;14.668;2022-11-15T10:29:44;39.78;;;25.60;;
19651;SDS011;9974;52.146;14.668;2022-11-15T10:32:16;37.88;;;25.42;;
19651;SDS011;9974;52.146;14.668;2022-11-15T10:34:46;37.72;;;25.42;;
19651;SDS011;9974;52.146;14.668;2022-11-15T10:37:14;34.60;;;25.45;;
19651;SDS011;9974;52.146;14.668;2022-11-15T10:40:05;30.73;;;23.55;;
19651;SDS011;9974;52.146;14.668;2022-11-15T10:43:04;32.83;;;23.58;;
19651;SDS011;9974;52.146;14.668;2022-11-15T10:45:39;34.15;;;24.67;;
19651;SDS011;9974;52.146;14.668;2022-11-15T10:50:37;30.30;;;22.55;;
19651;SDS011;9974;52.146;14.668;2022-11-15T10:53:27;33.45;;;24.73;;
19651;SDS011;9974;52.146;14.668;2022-11-15T10:56:08;36.67;;;24.23;;
19651;SDS011;9974;52.146;14.668;2022-11-15T10:58:50;30.15;;;22.88;;
19651;SDS011;9974;52.146;14.668;2022-11-15T11:01:21;31.52;;;23.80;;
19651;SDS011;9974;52.146;14.668;2022-11-15T11:04:00;33.03;;;23.52;;
19651;SDS011;9974;52.146;14.668;2022-11-15T11:06:29;31.77;;;22.73;;
19651;SDS011;9974;52.146;14.668;2022-11-15T11:08:57;30.58;;;22.85;;
19651;SDS011;9974;52.146;14.668;2022-11-15T11:11:43;29.42;;;21.75;;
19651;SDS011;9974;52.146;14.668;2022-11-15T11:14:12;28.63;;;21.80;;
19651;SDS011;9974;52.146;14.668;2022-11-15T11:16:50;30.27;;;21.25;;
19651;SDS011;9974;52.146;14.668;2022-11-15T11:19:59;33.65;;;21.80;;
19651;SDS011;9974;52.146;14.668;2022-11-15T11:25:34;27.50;;;20.23;;
19651;SDS011;9974;52.146;14.668;2022-11-15T11:28:45;28.63;;;21.33;;
19651;SDS011;9974;52.146;14.668;2022-11-15T11:34:29;28.63;;;19.75;;
19651;SDS011;9974;52.146;14.668;2022-11-15T11:37:12;26.58;;;19.40;;
19651;SDS011;9974;52.146;14.668;2022-11-15T11:43:08;26.65;;;18.83;;
19651;SDS011;9974;52.146;14.668;2022-11-15T11:49:19;28.88;;;17.98;;
19651;SDS011;9974;52.146;14.668;2022-11-15T11:51:56;26.42;;;18.05;;
19651;SDS011;9974;52.146;14.668;2022-11-15T11:57:43;23.77;;;17.60;;
19651;SDS011;9974;52.146;14.668;2022-11-15T12:00:22;23.63;;;17.00;;
19651;SDS011;9974;52.146;14.668;2022-11-15T12:08:23;23.00;;;15.32;;
19651;SDS011;9974;52.146;14.668;2022-11-15T12:11:18;20.20;;;15.45;;
19651;SDS011;9974;52.146;14.668;2022-11-15T12:13:53;22.98;;;15.25;;
19651;SDS011;9974;52.146;14.668;2022-11-15T12:16:28;25.33;;;15.38;;
19651;SDS011;9974;52.146;14.668;2022-11-15T12:18:59;21.63;;;15.73;;
19651;SDS011;9974;52.146;14.668;2022-11-15T12:21:41;18.30;;;15.25;;
19651;SDS011;9974;52.146;14.668;2022-11-15T12:27:00;22.50;;;16.60;;
19651;SDS011;9974;52.146;14.668;2022-11-15T12:29:46;21.85;;;16.80;;
19651;SDS011;9974;52.146;14.668;2022-11-15T12:34:58;26.13;;;16.77;;
19651;SDS011;9974;52.146;14.668;2022-11-15T12:45:36;21.70;;;15.00;;
19651;SDS011;9974;52.146;14.668;2022-11-15T12:56:09;17.73;;;12.90;;
19651;SDS011;9974;52.146;14.668;2022-11-15T12:58:53;16.13;;;11.75;;
19651;SDS011;9974;52.146;14.668;2022-11-15T13:06:50;15.75;;;11.57;;
19651;SDS011;9974;52.146;14.668;2022-11-15T13:12:02;15.43;;;10.80;;
19651;SDS011;9974;52.146;14.668;2022-11-15T13:22:38;15.70;;;11.02;;
19651;SDS011;9974;52.146;14.668;2022-11-15T13:31:19;12.43;;;9.98;;
19651;SDS011;9974;52.146;14.668;2022-11-15T13:34:02;15.35;;;10.80;;
19651;SDS011;9974;52.146;14.668;2022-11-15T13:36:40;15.30;;;11.35;;
19651;SDS011;9974;52.146;14.668;2022-11-15T13:39:40;16.02;;;9.52;;
19651;SDS011;9974;52.146;14.668;2022-11-15T13:42:02;14.98;;;10.30;;
19651;SDS011;9974;52.146;14.668;2022-11-15T13:44:29;12.25;;;9.48;;
19651;SDS011;9974;52.146;14.668;2022-11-15T13:47:00;14.02;;;10.57;;
19651;SDS011;9974;52.146;14.668;2022-11-15T13:49:31;16.48;;;10.55;;
19651;SDS011;9974;52.146;14.668;2022-11-15T13:51:59;16.15;;;10.77;;
19651;SDS011;9974;52.146;14.668;2022-11-15T13:54:29;13.55;;;11.02;;
19651;SDS011;9974;52.146;14.668;2022-11-15T13:57:03;18.13;;;9.80;;
19651;SDS011;9974;52.146;14.668;2022-11-15T13:59:36;17.85;;;11.40;;
19651;SDS011;9974;52.146;14.668;2022-11-15T14:02:17;14.50;;;11.55;;
19651;SDS011;9974;52.146;14.668;2022-11-15T14:04:51;17.90;;;11.93;;
19651;SDS011;9974;52.146;14.668;2022-11-15T14:07:25;19.30;;;13.65;;
19651;SDS011;9974;52.146;14.668;2022-11-15T14:09:52;15.90;;;13.18;;
19651;SDS011;9974;52.146;14.668;2022-11-15T14:15:01;16.88;;;12.90;;
19651;SDS011;9974;52.146;14.668;2022-11-15T14:17:51;19.13;;;12.57;;
19651;SDS011;9974;52.146;14.668;2022-11-15T14:22:59;18.23;;;13.23;;
19651;SDS011;9974;52.146;14.668;2022-11-15T14:25:51;15.40;;;11.15;;
19651;SDS011;9974;52.146;14.668;2022-11-15T14:30:48;17.00;;;12.05;;
19651;SDS011;9974;52.146;14.668;2022-11-15T14:35:48;19.25;;;13.52;;
19651;SDS011;9974;52.146;14.668;2022-11-15T14:38:15;18.08;;;12.82;;
19651;SDS011;9974;52.146;14.668;2022-11-15T14:40:41;20.10;;;14.13;;
19651;SDS011;9974;52.146;14.668;2022-11-15T14:43:11;19.52;;;14.45;;
19651;SDS011;9974;52.146;14.668;2022-11-15T14:45:37;18.05;;;12.98;;
19651;SDS011;9974;52.146;14.668;2022-11-15T14:48:04;17.58;;;13.75;;
19651;SDS011;9974;52.146;14.668;2022-11-15T14:50:30;20.48;;;14.98;;
19651;SDS011;9974;52.146;14.668;2022-11-15T14:52:57;21.27;;;14.10;;
19651;SDS011;9974;52.146;14.668;2022-11-15T14:55:25;18.30;;;13.10;;
19651;SDS011;9974;52.146;14.668;2022-11-15T14:57:53;17.10;;;12.75;;
19651;SDS011;9974;52.146;14.668;2022-11-15T15:00:20;22.60;;;13.95;;
19651;SDS011;9974;52.146;14.668;2022-11-15T15:02:47;17.10;;;13.48;;
19651;SDS011;9974;52.146;14.668;2022-11-15T15:07:51;20.33;;;14.27;;
19651;SDS011;9974;52.146;14.668;2022-11-15T15:10:20;18.60;;;13.60;;
19651;SDS011;9974;52.146;14.668;2022-11-15T15:12:46;19.83;;;14.23;;
19651;SDS011;9974;52.146;14.668;2022-11-15T15:15:14;19.33;;;13.88;;
19651;SDS011;9974;52.146;14.668;2022-11-15T15:17:47;21.70;;;13.90;;
19651;SDS011;9974;52.146;14.668;2022-11-15T15:20:13;17.05;;;12.73;;
19651;SDS011;9974;52.146;14.668;2022-11-15T15:22:39;17.63;;;12.77;;
19651;SDS011;9974;52.146;14.668;2022-11-15T15:25:22;18.80;;;13.90;;
19651;SDS011;9974;52.146;14.668;2022-11-15T15:27:54;19.50;;;15.05;;
19651;SDS011;9974;52.146;14.668;2022-11-15T15:30:21;18.02;;;13.05;;
19651;SDS011;9974;52.146;14.668;2022-11-15T15:32:48;20.92;;;13.48;;
19651;SDS011;9974;52.146;14.668;2022-11-15T15:35:14;21.17;;;13.65;;
19651;SDS011;9974;52.146;14.668;2022-11-15T15:37:41;17.95;;;13.02;;
19651;SDS011;9974;52.146;14.668;2022-11-15T15:40:14;20.00;;;13.38;;
19651;SDS011;9974;52.146;14.668;2022-11-15T15:42:46;20.25;;;12.95;;
19651;SDS011;9974;52.146;14.668;2022-11-15T15:45:12;18.27;;;13.38;;
19651;SDS011;9974;52.146;14.668;2022-11-15T15:47:39;21.27;;;14.30;;
19651;SDS011;9974;52.146;14.668;2022-11-15T15:52:54;17.90;;;12.95;;
19651;SDS011;9974;52.146;14.668;2022-11-15T15:55:21;26.80;;;14.98;;
19651;SDS011;9974;52.146;14.668;2022-11-15T15:57:47;17.67;;;13.18;;
19651;SDS011;9974;52.146;14.668;2022-11-15T16:00:14;19.60;;;13.77;;
19651;SDS011;9974;52.146;14.668;2022-11-15T16:02:40;20.98;;;13.35;;
19651;SDS011;9974;52.146;14.668;2022-11-15T16:05:07;19.52;;;13.13;;
19651;SDS011;9974;52.146;14.668;2022-11-15T16:07:34;22.63;;;15.25;;
19651;SDS011;9974;52.146;14.668;2022-11-15T16:10:00;21.58;;;16.27;;
19651;SDS011;9974;52.146;14.668;2022-11-15T16:12:28;27.98;;;15.40;;
19651;SDS011;9974;52.146;14.668;2022-11-15T16:14:59;24.02;;;15.93;;
19651;SDS011;9974;52.146;14.668;2022-11-15T16:17:28;23.10;;;15.23;;
19651;SDS011;9974;52.146;14.668;2022-11-15T16:19:57;27.45;;;17.23;;
19651;SDS011;9974;52.146;14.668;2022-11-15T16:22:23;26.70;;;18.05;;
19651;SDS011;9974;52.146;14.668;2022-11-15T16:24:49;29.05;;;17.63;;
19651;SDS011;9974;52.146;14.668;2022-11-15T16:27:15;22.50;;;16.58;;
19651;SDS011;9974;52.146;14.668;2022-11-15T16:29:43;23.70;;;17.02;;
19651;SDS011;9974;52.146;14.668;2022-11-15T16:32:09;34.08;;;18.50;;
19651;SDS011;9974;52.146;14.668;2022-11-15T16:34:35;39.67;;;18.98;;
19651;SDS011;9974;52.146;14.668;2022-11-15T16:37:01;37.80;;;19.13;;
19651;SDS011;9974;52.146;14.668;2022-11-15T16:39:27;25.38;;;18.48;;
19651;SDS011;9974;52.146;14.668;2022-11-15T16:41:55;29.40;;;18.23;;
19651;SDS011;9974;52.146;14.668;2022-11-15T16:44:22;28.38;;;19.02;;
19651;SDS011;9974;52.146;14.668;2022-11-15T16:46:48;25.65;;;18.55;;